sensor_id;sensor_type;location;lat;lon;timestamp;pressure;altitude;pressure_sealevel;temperature;humidity
71109;BME280;59614;51.012;-1.648;2023-01-30T00:00:22;101405.78;;;6.61;100.00
71109;BME280;59614;51.012;-1.648;2023-01-30T00:02:48;101414.50;;;6.62;100.00
71109;BME280;59614;51.012;-1.648;2023-01-30T00:05:13;101417.91;;;6.56;100.00
71109;BME280;59614;51.012;-1.648;2023-01-30T00:07:38;101425.06;;;6.63;100.00
71109;BME280;59614;51.012;-1.648;2023-01-30T00:10:04;101427.69;;;6.67;100.00
71109;BME280;59614;51.012;-1.648;2023-01-30T00:12:30;101434.00;;;6.78;100.00
71109;BME280;59614;51.012;-1.648;2023-01-30T00:14:55;101448.22;;;6.92;100.00
71109;BME280;59614;51.012;-1.648;2023-01-30T00:17:20;101456.16;;;6.97;100.00
71109;BME280;59614;51.012;-1.648;2023-01-30T00:19:46;101456.03;;;6.89;100.00
71109;BME280;59614;51.012;-1.648;2023-01-30T00:22:11;101448.03;;;6.80;100.00
71109;BME280;59614;51.012;-1.648;2023-01-30T00:24:37;101449.00;;;6.85;100.00
71109;BME280;59614;51.012;-1.648;2023-01-30T00:27:02;101441.94;;;6.81;100.00
71109;BME280;59614;51.012;-1.648;2023-01-30T00:29:28;101436.81;;;6.89;100.00
71109;BME280;59614;51.012;-1.648;2023-01-30T00:31:53;101434.78;;;6.71;100.00
71109;BME280;59614;51.012;-1.648;2023-01-30T00:34:18;101430.38;;;6.70;100.00
71109;BME280;59614;51.012;-1.648;2023-01-30T00:36:44;101431.22;;;6.67;100.00
71109;BME280;59614;51.012;-1.648;2023-01-30T00:39:09;101435.47;;;6.60;100.00
71109;BME280;59614;51.012;-1.648;2023-01-30T00:41:35;101424.22;;;6.66;100.00
71109;BME280;59614;51.012;-1.648;2023-01-30T00:44:19;101424.84;;;6.51;100.00
71109;BME280;59614;51.012;-1.648;2023-01-30T00:47:03;101431.75;;;6.46;100.00
71109;BME280;59614;51.012;-1.648;2023-01-30T00:49:32;101431.03;;;6.56;100.00
71109;BME280;59614;51.012;-1.648;2023-01-30T00:51:58;101438.09;;;6.60;100.00
71109;BME280;59614;51.012;-1.648;2023-01-30T00:54:23;101426.78;;;6.64;100.00
71109;BME280;59614;51.012;-1.648;2023-01-30T00:56:49;101424.41;;;6.78;100.00
71109;BME280;59614;51.012;-1.648;2023-01-30T00:59:14;101420.94;;;6.79;100.00
71109;BME280;59614;51.012;-1.648;2023-01-30T01:01:39;101425.22;;;6.76;100.00
71109;BME280;59614;51.012;-1.648;2023-01-30T01:04:06;101426.13;;;6.78;100.00
71109;BME280;59614;51.012;-1.648;2023-01-30T01:06:33;101426.31;;;6.90;100.00
71109;BME280;59614;51.012;-1.648;2023-01-30T01:08:58;101430.66;;;6.88;100.00
71109;BME280;59614;51.012;-1.648;2023-01-30T01:11:24;101421.84;;;6.83;100.00
71109;BME280;59614;51.012;-1.648;2023-01-30T01:13:56;101421.72;;;6.77;100.00
71109;BME280;59614;51.012;-1.648;2023-01-30T01:16:23;101413.91;;;6.78;100.00
71109;BME280;59614;51.012;-1.648;2023-01-30T01:18:49;101406.03;;;6.80;100.00
71109;BME280;59614;51.012;-1.648;2023-01-30T01:21:15;101420.00;;;6.77;100.00
71109;BME280;59614;51.012;-1.648;2023-01-30T01:23:41;101412.09;;;6.76;100.00
71109;BME280;59614;51.012;-1.648;2023-01-30T01:26:07;101411.22;;;6.75;100.00
71109;BME280;59614;51.012;-1.648;2023-01-30T01:28:32;101420.84;;;6.75;100.00
71109;BME280;59614;51.012;-1.648;2023-01-30T01:30:57;101409.44;;;6.73;100.00
71109;BME280;59614;51.012;-1.648;2023-01-30T01:33:27;101412.88;;;6.69;100.00
71109;BME280;59614;51.012;-1.648;2023-01-30T01:35:56;101410.25;;;6.67;100.00
71109;BME280;59614;51.012;-1.648;2023-01-30T01:38:21;101399.81;;;6.72;100.00
71109;BME280;59614;51.012;-1.648;2023-01-30T01:40:47;101390.06;;;6.64;100.00
71109;BME280;59614;51.012;-1.648;2023-01-30T01:43:33;101395.22;;;6.58;100.00
71109;BME280;59614;51.012;-1.648;2023-01-30T01:46:14;101392.66;;;6.63;100.00
71109;BME280;59614;51.012;-1.648;2023-01-30T01:48:54;101405.06;;;6.72;100.00
71109;BME280;59614;51.012;-1.648;2023-01-30T01:51:30;101415.50;;;6.69;100.00
71109;BME280;59614;51.012;-1.648;2023-01-30T01:54:21;101410.31;;;6.73;100.00
71109;BME280;59614;51.012;-1.648;2023-01-30T01:56:48;101406.09;;;6.83;100.00
71109;BME280;59614;51.012;-1.648;2023-01-30T01:59:31;101411.44;;;6.89;100.00
71109;BME280;59614;51.012;-1.648;2023-01-30T02:02:01;101405.38;;;6.93;100.00
71109;BME280;59614;51.012;-1.648;2023-01-30T02:04:29;101406.78;;;6.70;100.00
71109;BME280;59614;51.012;-1.648;2023-01-30T02:07:16;101403.19;;;6.64;100.00
71109;BME280;59614;51.012;-1.648;2023-01-30T02:09:42;101393.72;;;6.74;100.00
71109;BME280;59614;51.012;-1.648;2023-01-30T02:12:09;101402.50;;;6.75;100.00
71109;BME280;59614;51.012;-1.648;2023-01-30T02:14:36;101403.47;;;6.83;100.00
71109;BME280;59614;51.012;-1.648;2023-01-30T02:17:01;101408.53;;;6.71;100.00
71109;BME280;59614;51.012;-1.648;2023-01-30T02:19:34;101407.56;;;6.65;100.00
71109;BME280;59614;51.012;-1.648;2023-01-30T02:36:03;101378.63;;;6.59;100.00
71109;BME280;59614;51.012;-1.648;2023-01-30T02:38:56;101372.53;;;6.60;100.00
71109;BME280;59614;51.012;-1.648;2023-01-30T02:41:35;101374.16;;;6.52;100.00
71109;BME280;59614;51.012;-1.648;2023-01-30T02:46:57;101364.72;;;6.63;100.00
71109;BME280;59614;51.012;-1.648;2023-01-30T02:49:38;101372.34;;;6.48;100.00
71109;BME280;59614;51.012;-1.648;2023-01-30T02:52:07;101372.47;;;6.57;100.00
71109;BME280;59614;51.012;-1.648;2023-01-30T02:54:33;101373.47;;;6.65;100.00
71109;BME280;59614;51.012;-1.648;2023-01-30T02:56:59;101362.88;;;6.58;100.00
71109;BME280;59614;51.012;-1.648;2023-01-30T03:04:47;101360.53;;;6.78;100.00
71109;BME280;59614;51.012;-1.648;2023-01-30T03:10:56;101367.53;;;6.79;100.00
71109;BME280;59614;51.012;-1.648;2023-01-30T03:16:18;101365.78;;;6.76;100.00
71109;BME280;59614;51.012;-1.648;2023-01-30T03:18:46;101364.16;;;6.86;100.00
71109;BME280;59614;51.012;-1.648;2023-01-30T03:21:12;101362.63;;;7.04;100.00
71109;BME280;59614;51.012;-1.648;2023-01-30T03:23:38;101369.72;;;7.09;100.00
71109;BME280;59614;51.012;-1.648;2023-01-30T03:26:05;101373.19;;;7.07;100.00
71109;BME280;59614;51.012;-1.648;2023-01-30T03:28:32;101373.19;;;7.07;100.00
71109;BME280;59614;51.012;-1.648;2023-01-30T03:30:58;101380.31;;;7.17;100.00
71109;BME280;59614;51.012;-1.648;2023-01-30T03:33:24;101378.38;;;7.04;100.00
71109;BME280;59614;51.012;-1.648;2023-01-30T03:35:50;101378.50;;;7.13;100.00
71109;BME280;59614;51.012;-1.648;2023-01-30T03:38:16;101382.19;;;7.28;100.00
71109;BME280;59614;51.012;-1.648;2023-01-30T03:40:42;101383.84;;;7.19;100.00
71109;BME280;59614;51.012;-1.648;2023-01-30T03:43:08;101391.69;;;7.16;100.00
71109;BME280;59614;51.012;-1.648;2023-01-30T03:45:33;101392.53;;;7.15;100.00
71109;BME280;59614;51.012;-1.648;2023-01-30T03:47:59;101391.78;;;7.24;100.00
71109;BME280;59614;51.012;-1.648;2023-01-30T03:50:24;101391.69;;;7.16;100.00
71109;BME280;59614;51.012;-1.648;2023-01-30T03:52:49;101385.47;;;7.09;100.00
71109;BME280;59614;51.012;-1.648;2023-01-30T03:55:15;101386.19;;;6.98;100.00
71109;BME280;59614;51.012;-1.648;2023-01-30T03:57:41;101380.09;;;7.02;100.00
71109;BME280;59614;51.012;-1.648;2023-01-30T04:00:07;101380.84;;;6.91;100.00
71109;BME280;59614;51.012;-1.648;2023-01-30T04:02:32;101385.97;;;6.84;100.00
71109;BME280;59614;51.012;-1.648;2023-01-30T04:04:58;101378.03;;;6.79;100.00
71109;BME280;59614;51.012;-1.648;2023-01-30T04:07:23;101362.09;;;6.63;100.00
71109;BME280;59614;51.012;-1.648;2023-01-30T04:09:48;101370.81;;;6.62;100.00
71109;BME280;59614;51.012;-1.648;2023-01-30T04:12:14;101373.44;;;6.62;100.00
71109;BME280;59614;51.012;-1.648;2023-01-30T04:14:39;101374.38;;;6.68;100.00
71109;BME280;59614;51.012;-1.648;2023-01-30T04:17:05;101386.63;;;6.69;100.00
71109;BME280;59614;51.012;-1.648;2023-01-30T04:19:30;101384.19;;;6.79;100.00
71109;BME280;59614;51.012;-1.648;2023-01-30T04:21:56;101381.53;;;6.78;100.00
71109;BME280;59614;51.012;-1.648;2023-01-30T04:24:21;101388.53;;;6.79;100.00
71109;BME280;59614;51.012;-1.648;2023-01-30T04:26:47;101382.31;;;6.71;100.00
71109;BME280;59614;51.012;-1.648;2023-01-30T04:29:12;101390.13;;;6.68;100.00
71109;BME280;59614;51.012;-1.648;2023-01-30T04:31:38;101380.59;;;6.76;100.00
71109;BME280;59614;51.012;-1.648;2023-01-30T04:34:03;101382.53;;;6.86;100.00
71109;BME280;59614;51.012;-1.648;2023-01-30T04:36:28;101384.13;;;6.76;100.00
71109;BME280;59614;51.012;-1.648;2023-01-30T04:38:54;101391.22;;;6.84;100.00
71109;BME280;59614;51.012;-1.648;2023-01-30T04:41:21;101388.81;;;6.98;100.00
71109;BME280;59614;51.012;-1.648;2023-01-30T04:43:46;101396.66;;;6.94;100.00
71109;BME280;59614;51.012;-1.648;2023-01-30T04:46:12;101395.00;;;7.04;100.00
71109;BME280;59614;51.012;-1.648;2023-01-30T04:48:38;101393.28;;;7.03;100.00
71109;BME280;59614;51.012;-1.648;2023-01-30T04:51:04;101390.72;;;7.08;100.00
71109;BME280;59614;51.012;-1.648;2023-01-30T04:53:29;101390.72;;;7.09;100.00
71109;BME280;59614;51.012;-1.648;2023-01-30T04:55:55;101388.78;;;6.94;100.00
71109;BME280;59614;51.012;-1.648;2023-01-30T04:58:20;101389.50;;;6.84;100.00
71109;BME280;59614;51.012;-1.648;2023-01-30T05:00:46;101393.91;;;6.85;100.00
71109;BME280;59614;51.012;-1.648;2023-01-30T05:03:13;101394.69;;;6.79;100.00
71109;BME280;59614;51.012;-1.648;2023-01-30T05:05:39;101402.56;;;6.81;100.00
71109;BME280;59614;51.012;-1.648;2023-01-30T05:08:04;101404.50;;;6.94;100.00
71109;BME280;59614;51.012;-1.648;2023-01-30T05:10:30;101406.22;;;6.92;100.00
71109;BME280;59614;51.012;-1.648;2023-01-30T05:12:55;101399.16;;;6.88;100.00
71109;BME280;59614;51.012;-1.648;2023-01-30T05:15:20;101400.81;;;6.80;100.00
71109;BME280;59614;51.012;-1.648;2023-01-30T05:17:46;101419.28;;;6.86;100.00
71109;BME280;59614;51.012;-1.648;2023-01-30T05:20:12;101420.16;;;6.87;100.00
71109;BME280;59614;51.012;-1.648;2023-01-30T05:22:38;101429.00;;;6.93;100.00
71109;BME280;59614;51.012;-1.648;2023-01-30T05:25:03;101435.09;;;6.92;100.00
71109;BME280;59614;51.012;-1.648;2023-01-30T05:27:29;101429.03;;;6.97;100.00
71109;BME280;59614;51.012;-1.648;2023-01-30T05:29:54;101438.50;;;6.85;100.00
71109;BME280;59614;51.012;-1.648;2023-01-30T05:32:20;101432.47;;;6.91;100.00
71109;BME280;59614;51.012;-1.648;2023-01-30T05:34:47;101437.72;;;6.91;100.00
71109;BME280;59614;51.012;-1.648;2023-01-30T05:37:12;101450.00;;;6.93;100.00
71109;BME280;59614;51.012;-1.648;2023-01-30T05:39:38;101451.69;;;6.90;100.00
71109;BME280;59614;51.012;-1.648;2023-01-30T05:42:03;101467.50;;;6.94;100.00
71109;BME280;59614;51.012;-1.648;2023-01-30T05:44:29;101466.50;;;6.86;100.00
71109;BME280;59614;51.012;-1.648;2023-01-30T05:46:54;101475.97;;;6.78;100.00
71109;BME280;59614;51.012;-1.648;2023-01-30T05:49:20;101483.91;;;6.79;100.00
71109;BME280;59614;51.012;-1.648;2023-01-30T05:51:45;101488.16;;;6.73;100.00
71109;BME280;59614;51.012;-1.648;2023-01-30T05:54:11;101478.25;;;6.55;100.00
71109;BME280;59614;51.012;-1.648;2023-01-30T05:56:37;101480.78;;;6.50;100.00
71109;BME280;59614;51.012;-1.648;2023-01-30T05:59:02;101478.94;;;6.46;100.00
71109;BME280;59614;51.012;-1.648;2023-01-30T06:01:28;101494.53;;;6.37;100.00
71109;BME280;59614;51.012;-1.648;2023-01-30T06:03:54;101500.47;;;6.28;100.00
71109;BME280;59614;51.012;-1.648;2023-01-30T06:06:20;101500.25;;;6.15;100.00
71109;BME280;59614;51.012;-1.648;2023-01-30T06:08:46;101499.31;;;6.12;100.00
71109;BME280;59614;51.012;-1.648;2023-01-30T06:11:16;101504.47;;;6.09;100.00
71109;BME280;59614;51.012;-1.648;2023-01-30T06:13:42;101502.84;;;6.14;100.00
71109;BME280;59614;51.012;-1.648;2023-01-30T06:16:09;101509.25;;;6.28;100.00
71109;BME280;59614;51.012;-1.648;2023-01-30T06:18:38;101510.25;;;6.37;100.00
71109;BME280;59614;51.012;-1.648;2023-01-30T06:21:04;101515.59;;;6.43;100.00
71109;BME280;59614;51.012;-1.648;2023-01-30T06:23:30;101520.25;;;6.58;100.00
71109;BME280;59614;51.012;-1.648;2023-01-30T06:25:56;101527.09;;;6.49;100.00
71109;BME280;59614;51.012;-1.648;2023-01-30T06:28:23;101521.59;;;6.36;100.00
71109;BME280;59614;51.012;-1.648;2023-01-30T06:30:50;101525.25;;;6.44;100.00
71109;BME280;59614;51.012;-1.648;2023-01-30T06:33:16;101539.28;;;6.46;100.00
71109;BME280;59614;51.012;-1.648;2023-01-30T06:35:42;101532.09;;;6.37;100.00
71109;BME280;59614;51.012;-1.648;2023-01-30T06:38:08;101540.03;;;6.39;100.00
71109;BME280;59614;51.012;-1.648;2023-01-30T06:40:39;101537.41;;;6.40;97.64
71109;BME280;59614;51.012;-1.648;2023-01-30T06:43:05;101550.38;;;6.32;92.90
71109;BME280;59614;51.012;-1.648;2023-01-30T06:45:30;101559.09;;;6.31;91.96
71109;BME280;59614;51.012;-1.648;2023-01-30T06:47:56;101557.19;;;6.23;90.08
71109;BME280;59614;51.012;-1.648;2023-01-30T06:50:23;101557.81;;;6.09;89.27
71109;BME280;59614;51.012;-1.648;2023-01-30T06:52:50;101559.25;;;5.96;87.62
71109;BME280;59614;51.012;-1.648;2023-01-30T06:55:18;101563.59;;;5.96;86.31
71109;BME280;59614;51.012;-1.648;2023-01-30T06:57:44;101562.41;;;5.80;86.14
71109;BME280;59614;51.012;-1.648;2023-01-30T07:02:41;101584.38;;;5.86;83.49
71109;BME280;59614;51.012;-1.648;2023-01-30T07:05:07;101581.50;;;5.76;82.85
71109;BME280;59614;51.012;-1.648;2023-01-30T07:07:34;101593.25;;;5.93;82.42
71109;BME280;59614;51.012;-1.648;2023-01-30T07:10:00;101606.00;;;5.78;81.84
71109;BME280;59614;51.012;-1.648;2023-01-30T07:12:26;101620.06;;;5.81;81.30
71109;BME280;59614;51.012;-1.648;2023-01-30T07:14:52;101624.22;;;5.71;81.75
71109;BME280;59614;51.012;-1.648;2023-01-30T07:17:20;101624.97;;;5.66;82.36
71109;BME280;59614;51.012;-1.648;2023-01-30T07:19:46;101631.00;;;5.63;81.89
71109;BME280;59614;51.012;-1.648;2023-01-30T07:22:12;101627.09;;;5.46;82.54
71109;BME280;59614;51.012;-1.648;2023-01-30T07:24:38;101634.03;;;5.44;81.93
71109;BME280;59614;51.012;-1.648;2023-01-30T07:27:06;101634.41;;;5.59;82.19
71109;BME280;59614;51.012;-1.648;2023-01-30T07:29:33;101636.75;;;5.48;83.14
71109;BME280;59614;51.012;-1.648;2023-01-30T07:31:58;101642.50;;;5.33;84.65
71109;BME280;59614;51.012;-1.648;2023-01-30T07:34:23;101652.34;;;5.08;84.59
71109;BME280;59614;51.012;-1.648;2023-01-30T07:36:49;101661.31;;;5.17;83.46
71109;BME280;59614;51.012;-1.648;2023-01-30T07:39:14;101647.00;;;5.04;83.98
71109;BME280;59614;51.012;-1.648;2023-01-30T07:41:40;101645.94;;;4.97;84.75
71109;BME280;59614;51.012;-1.648;2023-01-30T07:44:05;101645.91;;;4.95;84.12
71109;BME280;59614;51.012;-1.648;2023-01-30T07:46:31;101644.91;;;4.90;85.53
71109;BME280;59614;51.012;-1.648;2023-01-30T07:49:03;101648.69;;;4.68;85.69
71109;BME280;59614;51.012;-1.648;2023-01-30T07:51:29;101663.22;;;4.58;87.13
71109;BME280;59614;51.012;-1.648;2023-01-30T07:53:54;101664.88;;;4.55;87.52
71109;BME280;59614;51.012;-1.648;2023-01-30T07:56:20;101654.19;;;4.47;87.36
71109;BME280;59614;51.012;-1.648;2023-01-30T07:58:49;101659.75;;;4.59;87.38
71109;BME280;59614;51.012;-1.648;2023-01-30T08:01:15;101672.59;;;4.50;88.00
71109;BME280;59614;51.012;-1.648;2023-01-30T08:03:40;101682.22;;;4.53;87.87
71109;BME280;59614;51.012;-1.648;2023-01-30T08:06:08;101692.69;;;4.53;87.74
71109;BME280;59614;51.012;-1.648;2023-01-30T08:08:33;101698.47;;;4.41;88.06
71109;BME280;59614;51.012;-1.648;2023-01-30T08:10:59;101707.50;;;4.52;88.83
71109;BME280;59614;51.012;-1.648;2023-01-30T08:13:24;101709.50;;;4.61;88.15
71109;BME280;59614;51.012;-1.648;2023-01-30T08:15:49;101702.63;;;4.64;88.13
71109;BME280;59614;51.012;-1.648;2023-01-30T08:18:15;101708.88;;;4.70;87.90
71109;BME280;59614;51.012;-1.648;2023-01-30T08:20:40;101693.38;;;4.76;86.57
71109;BME280;59614;51.012;-1.648;2023-01-30T08:23:07;101705.97;;;4.91;86.89
71109;BME280;59614;51.012;-1.648;2023-01-30T08:25:32;101710.25;;;4.87;86.99
71109;BME280;59614;51.012;-1.648;2023-01-30T08:27:59;101709.91;;;4.75;87.83
71109;BME280;59614;51.012;-1.648;2023-01-30T08:30:25;101719.31;;;4.70;88.82
71109;BME280;59614;51.012;-1.648;2023-01-30T08:32:50;101713.34;;;4.74;88.49
71109;BME280;59614;51.012;-1.648;2023-01-30T08:35:16;101728.13;;;4.73;88.42
71109;BME280;59614;51.012;-1.648;2023-01-30T08:37:42;101714.91;;;4.67;88.80
71109;BME280;59614;51.012;-1.648;2023-01-30T08:40:08;101705.38;;;4.69;89.00
71109;BME280;59614;51.012;-1.648;2023-01-30T08:42:34;101715.66;;;4.63;89.60
71109;BME280;59614;51.012;-1.648;2023-01-30T08:44:59;101717.38;;;4.62;87.68
71109;BME280;59614;51.012;-1.648;2023-01-30T08:47:25;101716.19;;;4.82;87.53
71109;BME280;59614;51.012;-1.648;2023-01-30T08:49:50;101725.13;;;4.90;87.87
71109;BME280;59614;51.012;-1.648;2023-01-30T08:52:17;101733.09;;;4.94;88.13
71109;BME280;59614;51.012;-1.648;2023-01-30T08:54:43;101734.28;;;5.06;87.01
71109;BME280;59614;51.012;-1.648;2023-01-30T08:57:08;101725.97;;;5.21;87.00
71109;BME280;59614;51.012;-1.648;2023-01-30T08:59:34;101714.94;;;5.33;87.12
71109;BME280;59614;51.012;-1.648;2023-01-30T09:01:59;101717.94;;;5.48;86.40
71109;BME280;59614;51.012;-1.648;2023-01-30T09:04:24;101716.00;;;5.39;85.11
71109;BME280;59614;51.012;-1.648;2023-01-30T09:06:51;101709.28;;;5.51;84.72
71109;BME280;59614;51.012;-1.648;2023-01-30T09:09:16;101713.13;;;5.65;84.87
71109;BME280;59614;51.012;-1.648;2023-01-30T09:11:42;101716.56;;;5.64;84.45
71109;BME280;59614;51.012;-1.648;2023-01-30T09:14:08;101721.13;;;5.71;85.41
71109;BME280;59614;51.012;-1.648;2023-01-30T09:16:34;101716.56;;;5.64;83.89
71109;BME280;59614;51.012;-1.648;2023-01-30T09:18:59;101717.19;;;5.89;84.12
71109;BME280;59614;51.012;-1.648;2023-01-30T09:21:25;101718.09;;;5.91;83.96
71109;BME280;59614;51.012;-1.648;2023-01-30T09:23:50;101708.50;;;5.92;82.86
71109;BME280;59614;51.012;-1.648;2023-01-30T09:26:15;101714.56;;;5.89;83.13
71109;BME280;59614;51.012;-1.648;2023-01-30T09:28:41;101711.19;;;5.95;82.92
71109;BME280;59614;51.012;-1.648;2023-01-30T09:31:06;101713.31;;;6.10;82.97
71109;BME280;59614;51.012;-1.648;2023-01-30T09:33:32;101712.56;;;6.15;83.31
71109;BME280;59614;51.012;-1.648;2023-01-30T09:35:57;101714.34;;;6.16;83.27
71109;BME280;59614;51.012;-1.648;2023-01-30T09:38:22;101708.91;;;6.09;82.62
71109;BME280;59614;51.012;-1.648;2023-01-30T09:46:21;101694.19;;;6.12;81.82
71109;BME280;59614;51.012;-1.648;2023-01-30T09:54:22;101708.91;;;6.07;81.94
71109;BME280;59614;51.012;-1.648;2023-01-30T09:57:19;101703.75;;;6.12;82.75
71109;BME280;59614;51.012;-1.648;2023-01-30T10:02:38;101697.03;;;6.23;81.93
71109;BME280;59614;51.012;-1.648;2023-01-30T10:05:05;101710.09;;;6.22;82.04
71109;BME280;59614;51.012;-1.648;2023-01-30T10:10:44;101723.38;;;6.29;82.16
71109;BME280;59614;51.012;-1.648;2023-01-30T10:27:12;101746.84;;;6.23;81.97
71109;BME280;59614;51.012;-1.648;2023-01-30T10:29:42;101744.38;;;6.29;82.91
71109;BME280;59614;51.012;-1.648;2023-01-30T10:32:52;101741.56;;;6.22;82.46
71109;BME280;59614;51.012;-1.648;2023-01-30T10:35:22;101737.84;;;6.53;82.55
71109;BME280;59614;51.012;-1.648;2023-01-30T10:38:39;101742.84;;;6.82;82.25
71109;BME280;59614;51.012;-1.648;2023-01-30T10:40:41;101764.81;;;6.87;80.64
71109;BME280;59614;51.012;-1.648;2023-01-30T10:43:28;101777.03;;;7.31;80.44
71109;BME280;59614;51.012;-1.648;2023-01-30T10:46:15;101780.84;;;7.49;79.66
71109;BME280;59614;51.012;-1.648;2023-01-30T10:49:10;101771.31;;;7.52;79.38
71109;BME280;59614;51.012;-1.648;2023-01-30T10:51:55;101777.56;;;7.61;78.80
71109;BME280;59614;51.012;-1.648;2023-01-30T10:59:58;101780.56;;;8.39;76.30
71109;BME280;59614;51.012;-1.648;2023-01-30T11:03:21;101791.09;;;8.39;75.59
71109;BME280;59614;51.012;-1.648;2023-01-30T11:05:48;101782.16;;;8.26;75.66
71109;BME280;59614;51.012;-1.648;2023-01-30T11:08:29;101783.53;;;8.62;76.08
71109;BME280;59614;51.012;-1.648;2023-01-30T11:10:56;101780.31;;;8.84;76.35
71109;BME280;59614;51.012;-1.648;2023-01-30T11:13:30;101792.00;;;8.41;76.49
71109;BME280;59614;51.012;-1.648;2023-01-30T11:15:58;101791.38;;;8.56;76.60
71109;BME280;59614;51.012;-1.648;2023-01-30T11:18:25;101796.19;;;8.27;75.76
71109;BME280;59614;51.012;-1.648;2023-01-30T11:21:02;101800.38;;;8.74;75.61
71109;BME280;59614;51.012;-1.648;2023-01-30T11:23:39;101791.00;;;8.96;75.94
71109;BME280;59614;51.012;-1.648;2023-01-30T11:26:05;101794.72;;;9.14;74.49
71109;BME280;59614;51.012;-1.648;2023-01-30T11:28:49;101793.16;;;9.31;72.62
71109;BME280;59614;51.012;-1.648;2023-01-30T11:31:27;101795.13;;;9.51;71.25
71109;BME280;59614;51.012;-1.648;2023-01-30T11:33:59;101793.75;;;9.93;72.27
71109;BME280;59614;51.012;-1.648;2023-01-30T11:36:28;101789.41;;;9.98;70.42
71109;BME280;59614;51.012;-1.648;2023-01-30T11:39:17;101790.19;;;9.91;70.88
71109;BME280;59614;51.012;-1.648;2023-01-30T11:46:52;101785.25;;;10.31;68.48
71109;BME280;59614;51.012;-1.648;2023-01-30T11:49:19;101774.91;;;10.65;68.76
71109;BME280;59614;51.012;-1.648;2023-01-30T11:51:46;101784.34;;;10.28;68.45
71109;BME280;59614;51.012;-1.648;2023-01-30T11:54:19;101792.16;;;10.17;68.52
71109;BME280;59614;51.012;-1.648;2023-01-30T11:56:51;101776.72;;;9.55;68.48
71109;BME280;59614;51.012;-1.648;2023-01-30T11:59:33;101790.47;;;10.24;68.37
71109;BME280;59614;51.012;-1.648;2023-01-30T12:04:29;101780.00;;;10.34;68.07
71109;BME280;59614;51.012;-1.648;2023-01-30T12:07:18;101784.44;;;10.43;66.69
71109;BME280;59614;51.012;-1.648;2023-01-30T12:09:45;101790.50;;;10.27;68.75
71109;BME280;59614;51.012;-1.648;2023-01-30T12:15:10;101799.66;;;9.66;64.32
71109;BME280;59614;51.012;-1.648;2023-01-30T12:20:36;101789.72;;;9.38;64.89
71109;BME280;59614;51.012;-1.648;2023-01-30T12:23:10;101793.63;;;9.78;65.28
71109;BME280;59614;51.012;-1.648;2023-01-30T12:25:41;101791.97;;;9.92;65.58
71109;BME280;59614;51.012;-1.648;2023-01-30T12:28:23;101799.94;;;9.98;66.68
71109;BME280;59614;51.012;-1.648;2023-01-30T12:30:55;101799.06;;;9.98;65.21
71109;BME280;59614;51.012;-1.648;2023-01-30T12:33:25;101784.03;;;9.87;65.13
71109;BME280;59614;51.012;-1.648;2023-01-30T12:39:04;101775.56;;;10.35;66.47
71109;BME280;59614;51.012;-1.648;2023-01-30T12:44:38;101768.03;;;11.08;64.38
71109;BME280;59614;51.012;-1.648;2023-01-30T12:49:59;101770.66;;;11.08;61.35
71109;BME280;59614;51.012;-1.648;2023-01-30T12:53:31;101782.16;;;11.21;63.05
71109;BME280;59614;51.012;-1.648;2023-01-30T13:01:23;101779.84;;;10.13;65.30
71109;BME280;59614;51.012;-1.648;2023-01-30T13:09:47;101758.78;;;10.25;66.36
71109;BME280;59614;51.012;-1.648;2023-01-30T13:15:15;101736.19;;;10.71;64.29
71109;BME280;59614;51.012;-1.648;2023-01-30T13:20:18;101740.69;;;10.86;64.26
71109;BME280;59614;51.012;-1.648;2023-01-30T13:22:59;101739.00;;;11.19;60.81
71109;BME280;59614;51.012;-1.648;2023-01-30T13:25:35;101735.50;;;11.29;62.12
71109;BME280;59614;51.012;-1.648;2023-01-30T13:28:12;101746.97;;;11.31;59.31
71109;BME280;59614;51.012;-1.648;2023-01-30T13:30:40;101732.81;;;11.13;60.95
71109;BME280;59614;51.012;-1.648;2023-01-30T13:33:11;101737.09;;;10.71;60.75
71109;BME280;59614;51.012;-1.648;2023-01-30T13:35:50;101741.50;;;10.72;63.97
71109;BME280;59614;51.012;-1.648;2023-01-30T13:38:23;101746.75;;;10.64;63.14
71109;BME280;59614;51.012;-1.648;2023-01-30T13:40:52;101750.31;;;10.82;65.35
71109;BME280;59614;51.012;-1.648;2023-01-30T13:43:26;101737.94;;;10.65;64.70
71109;BME280;59614;51.012;-1.648;2023-01-30T13:45:55;101749.28;;;10.41;64.47
71109;BME280;59614;51.012;-1.648;2023-01-30T13:56:45;101766.38;;;9.77;65.71
71109;BME280;59614;51.012;-1.648;2023-01-30T14:07:20;101768.41;;;9.18;67.03
71109;BME280;59614;51.012;-1.648;2023-01-30T14:20:26;101744.47;;;8.96;68.45
71109;BME280;59614;51.012;-1.648;2023-01-30T14:22:55;101740.56;;;9.40;68.33
71109;BME280;59614;51.012;-1.648;2023-01-30T14:28:37;101740.53;;;9.37;68.37
71109;BME280;59614;51.012;-1.648;2023-01-30T14:35:47;101741.88;;;9.89;67.29
71109;BME280;59614;51.012;-1.648;2023-01-30T14:38:15;101752.53;;;10.08;66.01
71109;BME280;59614;51.012;-1.648;2023-01-30T14:41:15;101748.19;;;10.14;64.89
71109;BME280;59614;51.012;-1.648;2023-01-30T14:57:20;101774.13;;;9.60;67.06
71109;BME280;59614;51.012;-1.648;2023-01-30T14:59:39;101772.44;;;9.68;66.95
71109;BME280;59614;51.012;-1.648;2023-01-30T15:15:56;101791.03;;;8.98;68.61
71109;BME280;59614;51.012;-1.648;2023-01-30T15:24:16;101793.66;;;8.96;69.66
71109;BME280;59614;51.012;-1.648;2023-01-30T15:37:53;101802.75;;;8.54;71.91
71109;BME280;59614;51.012;-1.648;2023-01-30T15:42:49;101820.91;;;8.40;72.95
71109;BME280;59614;51.012;-1.648;2023-01-30T15:50:35;101823.41;;;8.29;72.25
71109;BME280;59614;51.012;-1.648;2023-01-30T15:53:01;101832.94;;;8.22;72.64
71109;BME280;59614;51.012;-1.648;2023-01-30T15:55:32;101826.81;;;8.22;72.43
71109;BME280;59614;51.012;-1.648;2023-01-30T15:58:11;101832.09;;;8.25;72.88
71109;BME280;59614;51.012;-1.648;2023-01-30T16:00:42;101842.56;;;8.22;72.77
71109;BME280;59614;51.012;-1.648;2023-01-30T16:03:11;101836.47;;;8.24;72.65
71109;BME280;59614;51.012;-1.648;2023-01-30T16:05:46;101829.22;;;8.09;72.83
71109;BME280;59614;51.012;-1.648;2023-01-30T16:08:20;101828.25;;;8.04;73.24